createdAt,value
2022-12-11T00:00:09.320Z,1.10
2022-12-11T00:02:36.357Z,0.30
2022-12-11T00:05:03.450Z,0.30
2022-12-11T00:07:30.303Z,0.30
2022-12-11T00:09:58.350Z,0.20
2022-12-11T00:12:27.773Z,0.20
2022-12-11T00:14:54.561Z,0.10
2022-12-11T00:17:21.345Z,0.20
2022-12-11T00:19:50.736Z,0.20
2022-12-11T00:22:17.781Z,0.30
2022-12-11T00:24:44.540Z,0.20
2022-12-11T00:27:11.681Z,0.20
2022-12-11T00:29:38.441Z,0.20
2022-12-11T00:32:06.167Z,0.10
2022-12-11T00:34:32.929Z,0.10
2022-12-11T00:36:59.789Z,0.00
2022-12-11T00:39:26.805Z,0.10
2022-12-11T00:41:53.561Z,0.10
2022-12-11T00:44:20.424Z,0.10
2022-12-11T00:46:47.183Z,0.00
2022-12-11T00:49:14.099Z,0.10
2022-12-11T00:51:40.934Z,0.10
2022-12-11T00:54:07.843Z,0.00
2022-12-11T00:56:34.831Z,0.20
2022-12-11T00:59:02.146Z,0.20
2022-12-11T01:01:29.033Z,0.20
2022-12-11T01:03:56.007Z,0.30
2022-12-11T01:06:26.540Z,0.20
2022-12-11T01:09:13.541Z,0.20
2022-12-11T01:11:42.261Z,0.20
2022-12-11T01:14:11.127Z,0.20
2022-12-11T01:16:37.940Z,0.30
2022-12-11T01:19:04.841Z,0.20
2022-12-11T01:21:31.843Z,0.20
2022-12-11T01:23:58.745Z,0.30
2022-12-11T01:26:25.543Z,0.30
2022-12-11T01:28:52.666Z,0.30
2022-12-11T01:31:22.260Z,0.30
2022-12-11T01:33:49.333Z,0.20
2022-12-11T01:36:19.099Z,0.30
2022-12-11T01:38:48.016Z,0.30
2022-12-11T01:41:16.249Z,0.20
2022-12-11T01:44:08.363Z,0.20
2022-12-11T01:46:36.883Z,0.30
2022-12-11T01:49:08.520Z,0.20
2022-12-11T01:51:42.056Z,0.30
2022-12-11T01:54:12.206Z,0.10
2022-12-11T01:56:42.067Z,0.20
2022-12-11T01:59:10.429Z,0.30
2022-12-11T02:01:45.321Z,0.40
2022-12-11T02:04:13.581Z,0.20
2022-12-11T02:06:43.547Z,0.10
2022-12-11T02:09:20.230Z,0.20
2022-12-11T02:12:02.869Z,1.20
2022-12-11T02:14:32.629Z,0.10
2022-12-11T02:17:25.417Z,0.10
2022-12-11T02:20:21.957Z,0.10
2022-12-11T02:23:10.644Z,0.20
2022-12-11T02:26:02.064Z,0.20
2022-12-11T02:28:38.389Z,0.10
2022-12-11T02:31:17.618Z,0.00
2022-12-11T02:33:51.060Z,0.10
2022-12-11T02:36:21.424Z,0.20
2022-12-11T02:38:51.846Z,0.20
2022-12-11T02:41:21.604Z,0.20
2022-12-11T02:43:49.757Z,0.20
2022-12-11T02:46:19.975Z,0.20
2022-12-11T02:48:49.780Z,0.30
2022-12-11T02:51:18.505Z,0.30
2022-12-11T02:53:46.474Z,0.10
2022-12-11T02:56:35.024Z,0.10
2022-12-11T02:59:08.595Z,0.10
2022-12-11T03:01:35.429Z,0.20
2022-12-11T03:04:02.341Z,0.30
2022-12-11T03:06:36.111Z,0.30
2022-12-11T03:09:04.097Z,0.10
2022-12-11T03:11:33.256Z,0.10
2022-12-11T03:14:02.945Z,0.10
2022-12-11T03:16:29.774Z,0.20
2022-12-11T03:19:05.207Z,0.20
2022-12-11T03:21:38.271Z,0.20
2022-12-11T03:24:19.992Z,0.30
2022-12-11T03:26:56.687Z,0.40
2022-12-11T03:29:31.245Z,0.40
2022-12-11T03:32:12.428Z,0.20
2022-12-11T03:34:47.299Z,0.30
2022-12-11T03:37:15.527Z,0.30
2022-12-11T03:39:51.810Z,0.30
2022-12-11T03:42:21.582Z,0.30
2022-12-11T03:44:51.397Z,0.30
2022-12-11T03:47:22.598Z,0.30
2022-12-11T03:49:51.560Z,0.30
2022-12-11T03:52:19.807Z,0.30
2022-12-11T03:54:49.055Z,0.40
2022-12-11T03:57:19.418Z,0.40
2022-12-11T03:59:46.497Z,0.50
2022-12-11T04:02:13.407Z,0.50
2022-12-11T04:04:41.975Z,0.40
2022-12-11T04:07:09.275Z,0.50
2022-12-11T04:09:36.486Z,0.40
2022-12-11T04:12:03.292Z,0.50
2022-12-11T04:14:48.672Z,0.50
2022-12-11T04:17:35.900Z,0.50
2022-12-11T04:20:22.212Z,0.60
2022-12-11T04:23:07.784Z,0.40
2022-12-11T04:25:34.522Z,0.40
2022-12-11T04:28:05.830Z,0.50
2022-12-11T04:30:34.474Z,0.50
2022-12-11T04:33:01.619Z,0.40
2022-12-11T04:35:29.018Z,0.50
2022-12-11T04:37:55.998Z,0.50
2022-12-11T04:40:23.019Z,0.40
2022-12-11T04:42:49.826Z,0.40
2022-12-11T04:45:16.857Z,0.50
2022-12-11T04:47:46.678Z,0.50
2022-12-11T04:50:16.701Z,0.40
2022-12-11T04:52:43.722Z,0.50
2022-12-11T04:55:11.727Z,0.50
2022-12-11T04:57:39.297Z,0.50
2022-12-11T05:00:09.101Z,0.50
2022-12-11T05:02:37.589Z,0.40
2022-12-11T05:05:06.847Z,0.40
2022-12-11T05:07:33.622Z,0.50
2022-12-11T05:10:00.351Z,0.50
2022-12-11T05:12:27.232Z,0.40
2022-12-11T05:14:54.602Z,0.50
2022-12-11T05:17:22.255Z,0.60
2022-12-11T05:19:50.957Z,0.50
2022-12-11T05:22:18.877Z,0.50
2022-12-11T05:24:46.042Z,0.50
2022-12-11T05:27:12.888Z,0.50
2022-12-11T05:29:39.790Z,0.60
2022-12-11T05:32:07.980Z,0.50
2022-12-11T05:34:35.040Z,0.50
2022-12-11T05:37:02.437Z,0.50
2022-12-11T05:39:29.567Z,0.40
2022-12-11T05:41:56.328Z,0.40
2022-12-11T05:44:23.059Z,0.50
2022-12-11T05:46:49.985Z,0.30
2022-12-11T05:49:19.884Z,0.30
2022-12-11T05:51:47.333Z,0.30
2022-12-11T05:54:14.439Z,0.30
2022-12-11T05:56:41.446Z,0.40
2022-12-11T05:59:08.641Z,0.40
2022-12-11T06:01:41.035Z,0.40
2022-12-11T06:04:10.134Z,0.40
2022-12-11T06:06:37.915Z,0.40
2022-12-11T06:09:05.432Z,0.40
2022-12-11T06:11:33.643Z,0.40
2022-12-11T06:14:02.716Z,0.30
2022-12-11T06:16:30.791Z,0.30
2022-12-11T06:18:58.608Z,0.30
2022-12-11T06:21:28.190Z,0.30
2022-12-11T06:23:57.261Z,0.30
2022-12-11T06:26:25.054Z,0.30
2022-12-11T06:28:51.989Z,0.20
2022-12-11T06:31:19.038Z,0.20
2022-12-11T06:33:46.488Z,0.20
2022-12-11T06:36:16.817Z,0.30
2022-12-11T06:38:44.553Z,0.30
2022-12-11T06:41:12.082Z,0.20
2022-12-11T06:43:40.499Z,0.20
2022-12-11T06:46:09.584Z,0.20
2022-12-11T06:48:36.489Z,0.20
2022-12-11T06:51:07.450Z,0.20
2022-12-11T06:53:34.624Z,0.20
2022-12-11T06:56:10.083Z,0.20
2022-12-11T06:58:37.747Z,0.30
2022-12-11T07:01:05.925Z,0.30
2022-12-11T07:03:33.491Z,0.30
2022-12-11T07:06:02.562Z,0.40
2022-12-11T07:08:30.129Z,0.40
2022-12-11T07:11:06.536Z,0.40
2022-12-11T07:13:33.764Z,0.40
2022-12-11T07:16:02.097Z,0.40
2022-12-11T07:18:29.012Z,0.30
2022-12-11T07:20:59.252Z,0.30
2022-12-11T07:23:27.350Z,0.30
2022-12-11T07:25:54.796Z,0.30
2022-12-11T07:28:21.642Z,0.30
2022-12-11T07:30:48.905Z,0.30
2022-12-11T07:33:16.028Z,0.30
2022-12-11T07:35:43.773Z,0.30
2022-12-11T07:38:10.505Z,0.30
2022-12-11T07:40:37.545Z,0.40
2022-12-11T07:43:04.306Z,0.30
2022-12-11T07:45:31.280Z,0.40
2022-12-11T07:47:59.163Z,0.50
2022-12-11T07:50:25.957Z,0.40
2022-12-11T07:52:52.735Z,0.30
2022-12-11T07:55:19.554Z,0.20
2022-12-11T07:57:46.326Z,0.30
2022-12-11T08:00:13.586Z,0.30
2022-12-11T08:02:41.002Z,0.40
2022-12-11T08:05:08.910Z,0.40
2022-12-11T08:07:36.307Z,0.30
2022-12-11T08:10:04.618Z,0.30
2022-12-11T08:12:31.566Z,0.30
2022-12-11T08:14:58.414Z,0.40
2022-12-11T08:17:29.591Z,0.40
2022-12-11T08:19:58.944Z,0.20
2022-12-11T08:22:25.765Z,0.30
2022-12-11T08:24:52.795Z,0.30
2022-12-11T08:27:19.639Z,0.40
2022-12-11T08:29:47.581Z,0.40
2022-12-11T08:32:16.848Z,0.40
2022-12-11T08:34:44.279Z,0.40
2022-12-11T08:37:11.355Z,0.40
2022-12-11T08:39:38.502Z,0.40
2022-12-11T08:42:05.444Z,0.40
2022-12-11T08:44:32.225Z,0.50
2022-12-11T08:46:59.010Z,0.40
2022-12-11T08:49:28.668Z,0.40
2022-12-11T08:51:59.693Z,0.40
2022-12-11T08:54:26.590Z,0.50
2022-12-11T08:56:57.769Z,0.50
2022-12-11T08:59:25.768Z,0.50
2022-12-11T09:01:54.499Z,0.50
2022-12-11T09:04:21.476Z,0.50
2022-12-11T09:06:48.617Z,0.50
2022-12-11T09:09:15.778Z,0.50
2022-12-11T09:11:43.077Z,0.50
2022-12-11T09:14:10.178Z,0.50
2022-12-11T09:16:41.987Z,0.40
2022-12-11T09:19:14.088Z,0.50
2022-12-11T09:21:42.812Z,0.50
2022-12-11T09:24:11.521Z,0.60
2022-12-11T09:26:38.810Z,0.50
2022-12-11T09:29:07.097Z,0.50
2022-12-11T09:31:36.662Z,0.40
2022-12-11T09:34:11.698Z,0.50
2022-12-11T09:36:40.468Z,0.50
2022-12-11T09:39:08.641Z,0.50
2022-12-11T09:41:58.460Z,0.50
2022-12-11T09:44:38.214Z,0.40
2022-12-11T09:47:19.213Z,0.30
2022-12-11T09:49:48.859Z,0.30
2022-12-11T09:52:34.570Z,0.20
2022-12-11T09:55:05.329Z,0.20
2022-12-11T09:57:44.543Z,0.30
2022-12-11T10:00:27.502Z,0.30
2022-12-11T10:02:57.250Z,0.30
2022-12-11T10:05:27.193Z,0.40
2022-12-11T10:08:25.637Z,0.20
2022-12-11T10:11:13.784Z,0.10
2022-12-11T10:14:18.268Z,0.30
2022-12-11T10:16:49.089Z,0.20
2022-12-11T10:19:28.857Z,0.20
2022-12-11T10:21:57.194Z,0.40
2022-12-11T10:25:10.205Z,0.30
2022-12-11T10:27:34.471Z,0.30
2022-12-11T10:30:25.024Z,0.30
2022-12-11T10:33:05.271Z,0.30
2022-12-11T10:35:38.505Z,0.30
2022-12-11T10:38:28.959Z,0.20
2022-12-11T10:41:01.674Z,0.30
2022-12-11T10:43:37.776Z,0.30
2022-12-11T10:46:07.014Z,0.50
2022-12-11T10:48:33.955Z,0.30
2022-12-11T10:51:07.383Z,0.40
2022-12-11T10:53:35.256Z,0.30
2022-12-11T10:56:02.674Z,0.30
2022-12-11T10:58:33.995Z,0.20
2022-12-11T11:01:05.521Z,0.30
2022-12-11T11:03:33.362Z,0.30
2022-12-11T11:06:15.474Z,0.30
2022-12-11T11:08:47.185Z,0.30
2022-12-11T11:11:28.727Z,0.30
2022-12-11T11:14:19.937Z,0.30
2022-12-11T11:16:49.088Z,0.40
2022-12-11T11:19:21.729Z,0.40
2022-12-11T11:21:57.739Z,0.40
2022-12-11T11:24:46.387Z,0.40
2022-12-11T11:27:37.113Z,0.30
2022-12-11T11:30:08.551Z,0.40
2022-12-11T11:32:43.114Z,0.30
2022-12-11T11:35:13.659Z,0.40
2022-12-11T11:37:44.407Z,0.40
2022-12-11T11:40:13.885Z,0.50
2022-12-11T11:42:49.933Z,0.40
2022-12-11T11:45:24.514Z,0.40
2022-12-11T11:48:13.011Z,0.50
2022-12-11T11:50:45.104Z,0.30
2022-12-11T11:53:37.154Z,0.20
2022-12-11T11:56:22.593Z,0.30
2022-12-11T11:59:19.212Z,0.30
2022-12-11T12:01:46.088Z,0.40
2022-12-11T12:04:13.345Z,0.30
2022-12-11T12:06:53.302Z,0.40
2022-12-11T12:09:38.874Z,0.40
2022-12-11T12:12:25.670Z,0.40
2022-12-11T12:15:07.210Z,0.30
2022-12-11T12:17:54.977Z,0.50
2022-12-11T12:20:48.879Z,0.70
2022-12-11T12:23:26.038Z,0.40
2022-12-11T12:26:11.263Z,0.40
2022-12-11T12:28:49.098Z,0.50
2022-12-11T12:31:47.609Z,0.40
2022-12-11T12:34:46.015Z,0.50
2022-12-11T12:37:49.584Z,0.60
2022-12-11T12:40:39.749Z,0.50
2022-12-11T12:43:24.226Z,0.50
2022-12-11T12:46:23.438Z,0.40
2022-12-11T12:48:52.210Z,0.40
2022-12-11T12:51:19.580Z,0.50
2022-12-11T12:53:57.579Z,0.40
2022-12-11T12:56:26.158Z,0.40
2022-12-11T12:58:53.052Z,0.40
2022-12-11T13:01:24.446Z,0.40
2022-12-11T13:04:05.937Z,0.50
2022-12-11T13:06:45.232Z,0.50
2022-12-11T13:09:26.961Z,0.40
2022-12-11T13:11:57.890Z,0.40
2022-12-11T13:14:28.549Z,0.40
2022-12-11T13:17:21.438Z,0.40
2022-12-11T13:19:49.992Z,0.40
2022-12-11T13:22:17.018Z,0.40
2022-12-11T13:25:19.385Z,0.40
2022-12-11T13:27:46.204Z,0.50
2022-12-11T13:30:15.868Z,0.40
2022-12-11T13:33:03.382Z,0.20
2022-12-11T13:35:32.049Z,0.30
2022-12-11T13:38:06.205Z,0.20
2022-12-11T13:40:43.024Z,0.20
2022-12-11T13:43:19.938Z,0.10
2022-12-11T13:45:52.548Z,0.10
2022-12-11T13:48:24.679Z,0.20
2022-12-11T13:50:54.822Z,0.10
2022-12-11T13:53:21.971Z,0.10
2022-12-11T13:56:15.990Z,0.20
2022-12-11T13:58:44.498Z,0.20
2022-12-11T14:01:27.810Z,0.20
2022-12-11T14:04:09.239Z,0.10
2022-12-11T14:06:37.095Z,0.10
2022-12-11T14:09:05.528Z,0.10
2022-12-11T14:11:40.922Z,0.10
2022-12-11T14:14:22.221Z,0.10
2022-12-11T14:16:52.073Z,0.10
2022-12-11T14:19:21.635Z,0.10
2022-12-11T14:22:02.208Z,0.20
2022-12-11T14:24:30.152Z,0.00
2022-12-11T14:26:57.831Z,0.00
2022-12-11T14:29:34.036Z,0.00
2022-12-11T14:32:04.714Z,0.00
2022-12-11T14:34:37.099Z,0.10
2022-12-11T14:37:07.295Z,0.00
2022-12-11T14:40:07.286Z,0.10
2022-12-11T14:42:43.367Z,0.10
2022-12-11T14:45:35.916Z,0.10
2022-12-11T14:48:10.271Z,0.10
2022-12-11T14:50:50.673Z,0.00
2022-12-11T14:53:28.835Z,0.10
2022-12-11T14:55:58.989Z,0.10
2022-12-11T14:58:27.348Z,0.10
2022-12-11T15:01:04.635Z,0.10
2022-12-11T15:03:39.139Z,0.00
2022-12-11T15:06:44.430Z,-0.10
2022-12-11T15:09:36.298Z,0.00
2022-12-11T15:12:18.465Z,0.00
2022-12-11T15:15:00.771Z,0.00
2022-12-11T15:17:28.874Z,0.00
2022-12-11T15:20:02.644Z,0.00
2022-12-11T15:22:32.071Z,0.10
2022-12-11T15:25:00.290Z,0.00
2022-12-11T15:27:40.418Z,0.00
2022-12-11T15:30:27.739Z,0.00
2022-12-11T15:33:09.876Z,0.10
2022-12-11T15:35:38.588Z,0.10
2022-12-11T15:38:05.730Z,0.10
2022-12-11T15:40:32.894Z,0.00
2022-12-11T15:43:02.321Z,0.00
2022-12-11T15:45:29.324Z,0.00
2022-12-11T15:47:56.348Z,0.00
2022-12-11T15:50:25.657Z,0.00
2022-12-11T15:52:54.382Z,0.00
2022-12-11T15:55:23.097Z,0.00
2022-12-11T15:57:54.976Z,0.00
2022-12-11T16:00:24.041Z,0.10
2022-12-11T16:02:52.169Z,0.00
2022-12-11T16:05:19.649Z,0.00
2022-12-11T16:07:46.649Z,0.00
2022-12-11T16:10:17.580Z,0.00
2022-12-11T16:12:44.515Z,0.00
2022-12-11T16:15:21.676Z,0.00
2022-12-11T16:17:49.936Z,0.00
2022-12-11T16:20:16.795Z,0.10
2022-12-11T16:22:43.595Z,0.00
2022-12-11T16:25:10.847Z,0.10
2022-12-11T16:27:37.912Z,0.00
2022-12-11T16:30:05.269Z,-0.10
2022-12-11T16:32:32.064Z,0.00
2022-12-11T16:35:02.088Z,0.00
2022-12-11T16:37:29.028Z,0.00
2022-12-11T16:39:55.881Z,0.10
2022-12-11T16:42:22.935Z,0.10
2022-12-11T16:44:49.817Z,0.10
2022-12-11T16:47:16.556Z,0.00
2022-12-11T16:49:43.453Z,0.00
2022-12-11T16:52:10.816Z,0.00
2022-12-11T16:54:37.850Z,0.10
2022-12-11T16:57:04.737Z,0.00
2022-12-11T16:59:36.832Z,0.10
2022-12-11T17:02:04.733Z,0.00
2022-12-11T17:04:31.747Z,0.10
2022-12-11T17:06:58.993Z,0.10
2022-12-11T17:09:25.832Z,0.10
2022-12-11T17:11:52.643Z,0.10
2022-12-11T17:14:20.362Z,0.10
2022-12-11T17:16:48.201Z,0.10
2022-12-11T17:19:15.709Z,0.10
2022-12-11T17:21:46.998Z,0.10
2022-12-11T17:24:17.938Z,0.10
2022-12-11T17:26:44.892Z,0.10
2022-12-11T17:29:12.497Z,0.10
2022-12-11T17:31:40.681Z,0.10
2022-12-11T17:34:07.650Z,0.10
2022-12-11T17:36:34.723Z,0.10
2022-12-11T17:39:01.741Z,0.20
2022-12-11T17:41:28.697Z,0.20
2022-12-11T17:43:55.963Z,0.20
2022-12-11T17:46:22.921Z,0.30
2022-12-11T17:48:49.954Z,0.20
2022-12-11T17:51:22.291Z,0.10
2022-12-11T17:53:49.423Z,0.20
2022-12-11T17:56:16.990Z,0.20
2022-12-11T17:58:43.956Z,0.20
2022-12-11T18:01:12.788Z,0.20
2022-12-11T18:03:40.433Z,0.10
2022-12-11T18:06:11.165Z,0.10
2022-12-11T18:08:38.763Z,-0.60
2022-12-11T18:11:12.659Z,0.10
2022-12-11T18:13:43.836Z,0.10
2022-12-11T18:16:48.920Z,0.10
2022-12-11T18:19:16.041Z,0.10
2022-12-11T18:21:45.935Z,0.10
2022-12-11T18:24:12.982Z,0.10
2022-12-11T18:26:42.818Z,0.10
2022-12-11T18:29:09.985Z,0.10
2022-12-11T18:31:42.170Z,0.10
2022-12-11T18:34:13.601Z,0.10
2022-12-11T18:36:40.864Z,0.10
2022-12-11T18:39:08.410Z,0.10
2022-12-11T18:41:35.351Z,0.10
2022-12-11T18:44:08.131Z,0.10
2022-12-11T18:46:36.510Z,0.10
2022-12-11T18:49:03.466Z,0.10
2022-12-11T18:51:30.356Z,0.10
2022-12-11T18:53:57.370Z,0.20
2022-12-11T18:56:24.638Z,0.20
2022-12-11T18:58:51.783Z,0.20
2022-12-11T19:01:25.740Z,0.20
2022-12-11T19:04:02.682Z,0.20
2022-12-11T19:06:35.449Z,0.20
2022-12-11T19:09:03.773Z,0.20
2022-12-11T19:11:32.195Z,0.20
2022-12-11T19:13:59.719Z,0.30
2022-12-11T19:16:34.733Z,0.30
2022-12-11T19:19:09.994Z,0.30
2022-12-11T19:21:38.633Z,0.20
2022-12-11T19:24:08.632Z,0.30
2022-12-11T19:26:36.293Z,0.30
2022-12-11T19:29:03.660Z,0.30
2022-12-11T19:31:32.203Z,0.20
2022-12-11T19:34:03.368Z,0.20
2022-12-11T19:36:31.508Z,0.10
2022-12-11T19:39:01.888Z,0.10
2022-12-11T19:41:30.260Z,0.20
2022-12-11T19:43:58.810Z,0.30
2022-12-11T19:46:26.592Z,0.30
2022-12-11T19:48:55.765Z,0.40
2022-12-11T19:51:26.322Z,0.30
2022-12-11T19:53:53.525Z,0.30
2022-12-11T19:56:21.007Z,0.40
2022-12-11T19:58:48.992Z,0.30
2022-12-11T20:01:25.041Z,0.30
2022-12-11T20:03:57.508Z,0.20
2022-12-11T20:06:24.769Z,0.30
2022-12-11T20:09:22.624Z,0.30
2022-12-11T20:11:52.279Z,0.20
2022-12-11T20:18:23.679Z,0.20
2022-12-11T20:20:48.907Z,0.20
2022-12-11T20:23:23.570Z,0.30
2022-12-11T20:25:58.801Z,0.30
2022-12-11T20:28:32.352Z,0.30
2022-12-11T20:31:51.093Z,0.30
2022-12-11T20:34:18.350Z,0.30
2022-12-11T20:36:46.863Z,0.30
2022-12-11T20:39:15.114Z,0.30
2022-12-11T20:41:42.304Z,0.30
2022-12-11T20:44:09.742Z,0.20
2022-12-11T20:46:36.837Z,0.20
2022-12-11T20:49:05.562Z,0.20
2022-12-11T20:51:33.051Z,0.20
2022-12-11T20:54:00.391Z,0.20
2022-12-11T20:56:29.925Z,0.20
2022-12-11T20:58:58.618Z,0.20
2022-12-11T21:01:28.258Z,0.10
2022-12-11T21:03:55.250Z,0.10
2022-12-11T21:06:31.533Z,0.10
2022-12-11T21:09:04.945Z,0.10
2022-12-11T21:11:31.861Z,0.10
2022-12-11T21:13:58.754Z,0.10
2022-12-11T21:16:26.230Z,0.00
2022-12-11T21:18:53.468Z,0.00
2022-12-11T21:21:20.639Z,0.10
2022-12-11T21:23:50.404Z,0.00
2022-12-11T21:26:17.514Z,0.10
2022-12-11T21:28:44.816Z,0.10
2022-12-11T21:31:19.611Z,0.00
2022-12-11T21:33:47.685Z,0.00
2022-12-11T21:36:15.699Z,0.00
2022-12-11T21:38:43.783Z,0.10
2022-12-11T21:41:15.815Z,0.00
2022-12-11T21:44:32.938Z,0.00
2022-12-11T21:46:33.835Z,0.00
2022-12-11T21:49:00.836Z,0.00
2022-12-11T21:51:37.205Z,-0.10
2022-12-11T21:54:10.249Z,0.00
2022-12-11T21:56:37.250Z,0.00
2022-12-11T21:59:04.624Z,0.00
2022-12-11T22:01:35.490Z,0.00
2022-12-11T22:04:03.088Z,-0.10
2022-12-11T22:06:29.904Z,-0.10
2022-12-11T22:08:57.046Z,0.00
2022-12-11T22:11:30.280Z,0.00
2022-12-11T22:13:57.295Z,0.00
2022-12-11T22:16:24.265Z,0.00
2022-12-11T22:18:51.213Z,0.10
2022-12-11T22:21:18.380Z,0.00
2022-12-11T22:23:45.363Z,-0.10
2022-12-11T22:26:19.444Z,0.00
2022-12-11T22:28:46.438Z,0.00
2022-12-11T22:31:15.302Z,0.00
2022-12-11T22:33:42.492Z,-0.10
2022-12-11T22:36:11.214Z,-0.10
2022-12-11T22:38:39.336Z,-0.10
2022-12-11T22:41:18.984Z,0.00
2022-12-11T22:43:49.605Z,0.00
2022-12-11T22:49:04.606Z,-0.10
2022-12-11T22:51:36.238Z,-0.10
2022-12-11T22:54:03.805Z,-0.10
2022-12-11T22:56:30.574Z,-0.10
2022-12-11T22:58:58.086Z,-0.20
2022-12-11T23:01:27.138Z,-0.20
2022-12-11T23:03:54.276Z,-0.20
2022-12-11T23:06:23.581Z,-0.10
2022-12-11T23:08:51.139Z,-0.10
2022-12-11T23:11:24.872Z,-0.10
2022-12-11T23:13:52.296Z,-0.10
2022-12-11T23:16:19.500Z,-0.10
2022-12-11T23:18:46.498Z,-0.10
2022-12-11T23:21:13.684Z,-0.10
2022-12-11T23:23:41.189Z,-0.10
2022-12-11T23:26:11.615Z,-0.10
2022-12-11T23:28:39.177Z,-0.10
2022-12-11T23:31:06.759Z,-0.10
2022-12-11T23:33:33.704Z,-0.10
2022-12-11T23:36:00.604Z,-0.10
2022-12-11T23:38:27.559Z,-0.10
2022-12-11T23:40:54.628Z,-0.10
2022-12-11T23:43:21.447Z,-0.10
2022-12-11T23:45:48.544Z,-0.10
2022-12-11T23:48:15.663Z,-0.10
2022-12-11T23:50:43.551Z,-0.10
2022-12-11T23:53:11.028Z,-0.10
2022-12-11T23:55:43.106Z,-0.10
2022-12-11T23:58:10.834Z,-0.10
